createdAt,value
2022-12-27T00:01:38.669Z,3.72
2022-12-27T00:04:06.663Z,3.38
2022-12-27T00:06:34.676Z,3.72
2022-12-27T00:09:03.987Z,3.05
2022-12-27T00:11:32.059Z,3.38
2022-12-27T00:14:00.923Z,2.50
2022-12-27T00:16:28.883Z,3.15
2022-12-27T00:18:58.241Z,3.00
2022-12-27T00:21:26.760Z,2.90
2022-12-27T00:23:57.663Z,2.10
2022-12-27T00:26:29.546Z,2.75
2022-12-27T00:28:58.037Z,3.17
2022-12-27T00:31:27.621Z,3.88
2022-12-27T00:33:59.233Z,3.30
2022-12-27T00:36:29.499Z,3.78
2022-12-27T00:38:58.904Z,4.75
2022-12-27T00:41:27.318Z,3.35
2022-12-27T00:43:56.439Z,4.78
2022-12-27T00:46:24.448Z,3.30
2022-12-27T00:48:52.804Z,6.90
2022-12-27T00:51:24.619Z,4.43
2022-12-27T00:53:53.992Z,5.07
2022-12-27T00:56:25.081Z,3.78
2022-12-27T00:58:54.877Z,4.90
2022-12-27T01:01:25.826Z,2.60
2022-12-27T01:03:54.540Z,4.30
2022-12-27T01:06:25.938Z,3.38
2022-12-27T01:08:53.850Z,3.42
2022-12-27T01:11:21.716Z,5.03
2022-12-27T01:13:49.999Z,5.65
2022-12-27T01:16:19.526Z,3.92
2022-12-27T01:18:48.254Z,3.63
2022-12-27T01:21:18.233Z,4.07
2022-12-27T01:23:47.696Z,5.22
2022-12-27T01:26:17.585Z,4.78
2022-12-27T01:28:45.903Z,3.85
2022-12-27T01:31:15.877Z,3.50
2022-12-27T01:33:44.075Z,3.47
2022-12-27T01:36:13.456Z,4.25
2022-12-27T01:38:42.836Z,3.90
2022-12-27T01:41:35.457Z,5.38
2022-12-27T01:44:23.281Z,5.63
2022-12-27T01:46:51.408Z,5.00
2022-12-27T01:49:19.307Z,3.75
2022-12-27T01:51:47.197Z,3.58
2022-12-27T01:54:15.032Z,4.05
2022-12-27T01:56:45.497Z,3.97
2022-12-27T01:59:15.955Z,3.85
2022-12-27T02:01:47.780Z,4.10
2022-12-27T02:04:17.995Z,3.20
2022-12-27T02:06:47.633Z,3.92
2022-12-27T02:09:22.016Z,4.55
2022-12-27T02:11:56.920Z,3.90
2022-12-27T02:14:30.489Z,3.65
2022-12-27T02:17:00.457Z,3.50
2022-12-27T02:19:39.527Z,3.88
2022-12-27T02:23:08.118Z,4.30
2022-12-27T02:25:53.936Z,3.45
2022-12-27T02:28:38.279Z,3.95
2022-12-27T02:31:11.751Z,4.07
2022-12-27T02:33:46.909Z,4.68
2022-12-27T02:36:21.624Z,5.30
2022-12-27T02:38:54.527Z,3.30
2022-12-27T02:41:40.147Z,3.22
2022-12-27T02:44:25.615Z,3.42
2022-12-27T02:47:17.653Z,4.38
2022-12-27T02:50:03.166Z,2.97
2022-12-27T02:52:58.549Z,3.22
2022-12-27T02:55:33.711Z,2.65
2022-12-27T02:58:15.982Z,2.78
2022-12-27T03:01:07.276Z,2.22
2022-12-27T03:03:55.680Z,2.40
2022-12-27T03:06:43.841Z,3.88
2022-12-27T03:10:04.447Z,3.75
2022-12-27T03:13:04.583Z,9.98
2022-12-27T03:15:57.801Z,3.42
2022-12-27T03:18:51.438Z,2.17
2022-12-27T03:21:40.649Z,1.90
2022-12-27T03:24:35.826Z,1.85
2022-12-27T03:27:09.059Z,5.45
2022-12-27T03:29:54.556Z,1.80
2022-12-27T03:32:41.400Z,2.97
2022-12-27T03:35:16.582Z,1.95
2022-12-27T03:38:05.500Z,5.20
2022-12-27T03:41:07.998Z,2.65
2022-12-27T03:43:37.880Z,2.53
2022-12-27T03:46:33.901Z,4.90
2022-12-27T03:49:16.685Z,2.13
2022-12-27T03:51:49.726Z,6.13
2022-12-27T03:54:26.299Z,2.33
2022-12-27T03:56:57.015Z,3.70
2022-12-27T03:59:25.645Z,3.22
2022-12-27T04:01:53.621Z,4.25
2022-12-27T04:04:21.516Z,6.60
2022-12-27T04:06:50.619Z,2.67
2022-12-27T04:09:36.199Z,4.32
2022-12-27T04:12:21.669Z,4.70
2022-12-27T04:15:07.085Z,6.50
2022-12-27T04:17:52.513Z,2.95
2022-12-27T04:20:38.091Z,7.05
2022-12-27T04:23:25.247Z,4.55
2022-12-27T04:26:10.875Z,6.68
2022-12-27T04:28:56.617Z,2.15
2022-12-27T04:31:42.070Z,6.28
2022-12-27T04:34:27.852Z,5.40
2022-12-27T04:36:55.908Z,3.88
2022-12-27T04:39:25.010Z,7.90
2022-12-27T04:42:10.425Z,6.90
2022-12-27T04:44:58.233Z,13.52
2022-12-27T04:47:44.281Z,10.32
2022-12-27T04:50:46.803Z,7.10
2022-12-27T04:53:35.059Z,6.22
2022-12-27T04:56:05.329Z,6.57
2022-12-27T04:58:33.152Z,5.32
2022-12-27T05:01:21.160Z,6.38
2022-12-27T05:03:51.893Z,7.93
2022-12-27T05:06:20.213Z,4.40
2022-12-27T05:09:06.190Z,6.25
2022-12-27T05:11:52.630Z,10.20
2022-12-27T05:14:20.424Z,9.77
2022-12-27T05:16:48.239Z,4.63
2022-12-27T05:19:16.122Z,7.00
2022-12-27T05:22:06.751Z,13.80
2022-12-27T05:24:52.096Z,3.05
2022-12-27T05:27:21.241Z,10.45
2022-12-27T05:29:48.988Z,9.02
2022-12-27T05:32:16.765Z,6.60
2022-12-27T05:34:44.543Z,12.18
2022-12-27T05:37:12.383Z,14.70
2022-12-27T05:39:40.285Z,8.25
2022-12-27T05:42:08.030Z,12.13
2022-12-27T05:44:37.123Z,8.07
2022-12-27T05:47:05.037Z,13.82
2022-12-27T05:49:32.811Z,13.30
2022-12-27T05:52:00.576Z,10.35
2022-12-27T05:54:28.375Z,16.15
2022-12-27T05:56:56.185Z,11.63
2022-12-27T05:59:24.045Z,8.55
2022-12-27T06:01:53.939Z,7.47
2022-12-27T06:04:21.862Z,7.22
2022-12-27T06:06:49.659Z,12.95
2022-12-27T06:09:17.554Z,13.30
2022-12-27T06:11:45.469Z,12.10
2022-12-27T06:14:13.445Z,9.68
2022-12-27T06:16:41.275Z,10.65
2022-12-27T06:19:10.423Z,7.32
2022-12-27T06:21:38.319Z,15.88
2022-12-27T06:24:06.910Z,6.05
2022-12-27T06:26:34.717Z,6.72
2022-12-27T06:29:02.603Z,14.40
2022-12-27T06:31:30.551Z,16.48
2022-12-27T06:33:58.549Z,10.85
2022-12-27T06:36:29.584Z,8.13
2022-12-27T06:38:57.697Z,7.90
2022-12-27T06:41:25.691Z,10.13
2022-12-27T06:43:56.423Z,10.95
2022-12-27T06:46:25.409Z,11.80
2022-12-27T06:48:53.656Z,11.00
2022-12-27T06:51:22.348Z,12.48
2022-12-27T06:53:51.816Z,12.05
2022-12-27T06:56:21.269Z,8.15
2022-12-27T06:58:50.509Z,13.68
2022-12-27T07:01:20.710Z,10.15
2022-12-27T07:03:50.834Z,9.43
2022-12-27T07:06:19.409Z,10.35
2022-12-27T07:08:47.258Z,15.57
2022-12-27T07:11:17.396Z,16.80
2022-12-27T07:13:46.776Z,11.15
2022-12-27T07:16:16.882Z,9.13
2022-12-27T07:18:44.972Z,7.90
2022-12-27T07:21:15.091Z,10.23
2022-12-27T07:23:43.476Z,12.13
2022-12-27T07:26:13.051Z,7.18
2022-12-27T07:28:42.749Z,18.67
2022-12-27T07:31:12.606Z,6.57
2022-12-27T07:33:40.936Z,13.25
2022-12-27T07:36:12.555Z,11.00
2022-12-27T07:38:40.582Z,11.40
2022-12-27T07:41:08.450Z,10.68
2022-12-27T07:43:37.098Z,10.30
2022-12-27T07:46:08.773Z,8.82
2022-12-27T07:48:36.618Z,11.57
2022-12-27T07:51:04.675Z,9.05
2022-12-27T07:53:33.115Z,11.50
2022-12-27T07:56:01.048Z,16.15
2022-12-27T07:58:28.847Z,14.38
2022-12-27T08:00:57.531Z,11.48
2022-12-27T08:03:26.824Z,12.43
2022-12-27T08:05:54.654Z,8.13
2022-12-27T08:08:26.593Z,7.85
2022-12-27T08:10:55.057Z,10.75
2022-12-27T08:13:22.798Z,12.52
2022-12-27T08:15:53.815Z,18.05
2022-12-27T08:18:21.875Z,11.02
2022-12-27T08:20:51.433Z,14.43
2022-12-27T08:23:19.493Z,13.90
2022-12-27T08:25:48.917Z,12.27
2022-12-27T08:28:18.586Z,13.05
2022-12-27T08:30:47.051Z,12.82
2022-12-27T08:33:16.284Z,8.00
2022-12-27T08:35:54.550Z,12.63
2022-12-27T08:38:24.463Z,9.77
2022-12-27T08:40:52.194Z,15.20
2022-12-27T08:43:20.051Z,14.77
2022-12-27T08:45:48.201Z,8.95
2022-12-27T08:48:16.534Z,12.15
2022-12-27T08:50:44.510Z,13.48
2022-12-27T08:53:12.479Z,12.98
2022-12-27T08:55:41.615Z,12.88
2022-12-27T08:58:16.038Z,9.23
2022-12-27T09:00:44.329Z,16.33
2022-12-27T09:03:12.523Z,11.98
2022-12-27T09:05:42.213Z,20.15
2022-12-27T09:08:10.567Z,10.68
2022-12-27T09:10:39.204Z,21.30
2022-12-27T09:13:08.690Z,15.45
2022-12-27T09:15:36.568Z,11.25
2022-12-27T09:18:08.063Z,17.38
2022-12-27T09:20:36.021Z,11.90
2022-12-27T09:23:03.936Z,9.20
2022-12-27T09:25:31.808Z,16.63
2022-12-27T09:27:59.794Z,13.85
2022-12-27T09:30:29.924Z,12.23
2022-12-27T09:32:59.154Z,14.55
2022-12-27T09:35:26.998Z,7.22
2022-12-27T09:37:54.968Z,17.52
2022-12-27T09:40:22.901Z,16.40
2022-12-27T09:43:12.857Z,11.75
2022-12-27T09:45:52.566Z,13.50
2022-12-27T09:48:32.759Z,18.92
2022-12-27T09:51:05.150Z,11.23
2022-12-27T09:53:44.431Z,19.40
2022-12-27T09:56:14.251Z,18.20
2022-12-27T09:58:48.112Z,14.23
2022-12-27T10:01:23.886Z,11.80
2022-12-27T10:03:55.189Z,17.88
2022-12-27T10:06:51.705Z,15.52
2022-12-27T10:09:36.994Z,14.75
2022-12-27T10:12:19.185Z,10.90
2022-12-27T10:15:00.608Z,13.75
2022-12-27T10:17:52.715Z,14.23
2022-12-27T10:20:31.960Z,19.75
2022-12-27T10:23:06.465Z,11.50
2022-12-27T10:25:37.076Z,9.95
2022-12-27T10:28:17.254Z,17.58
2022-12-27T10:30:47.099Z,10.90
2022-12-27T10:33:22.929Z,10.10
2022-12-27T10:35:51.047Z,16.92
2022-12-27T10:38:19.817Z,19.40
2022-12-27T10:40:54.957Z,15.02
2022-12-27T10:43:27.631Z,13.32
2022-12-27T10:45:56.059Z,14.27
2022-12-27T10:48:36.374Z,12.55
2022-12-27T10:51:16.224Z,6.85
2022-12-27T10:53:58.729Z,14.18
2022-12-27T10:56:28.541Z,13.70
2022-12-27T10:59:05.938Z,14.63
2022-12-27T11:01:34.939Z,17.20
2022-12-27T11:04:23.323Z,15.90
2022-12-27T11:06:52.837Z,17.35
2022-12-27T11:09:30.175Z,21.73
2022-12-27T11:12:14.784Z,16.25
2022-12-27T11:14:55.367Z,17.80
2022-12-27T11:17:26.804Z,11.52
2022-12-27T11:19:58.514Z,20.95
2022-12-27T11:22:27.633Z,20.10
2022-12-27T11:24:59.691Z,18.67
2022-12-27T11:27:29.707Z,20.40
2022-12-27T11:29:59.969Z,11.23
2022-12-27T11:32:28.195Z,10.55
2022-12-27T11:34:58.217Z,15.30
2022-12-27T11:37:28.304Z,13.10
2022-12-27T11:40:11.359Z,11.02
2022-12-27T11:42:44.163Z,20.73
2022-12-27T11:45:16.141Z,16.50
2022-12-27T11:47:49.248Z,15.85
2022-12-27T11:50:38.842Z,14.40
2022-12-27T11:53:55.831Z,16.25
2022-12-27T11:56:27.943Z,16.27
2022-12-27T11:59:22.010Z,18.88
2022-12-27T12:02:14.670Z,12.43
2022-12-27T12:05:14.689Z,14.05
2022-12-27T12:07:59.273Z,19.00
2022-12-27T12:10:39.283Z,19.05
2022-12-27T12:13:42.213Z,18.13
2022-12-27T12:16:33.387Z,12.88
2022-12-27T12:19:11.990Z,13.23
2022-12-27T12:21:55.897Z,18.30
2022-12-27T12:25:01.613Z,13.05
2022-12-27T12:27:42.807Z,15.98
2022-12-27T12:30:52.511Z,22.92
2022-12-27T12:33:43.168Z,12.43
2022-12-27T12:36:26.781Z,10.00
2022-12-27T12:39:03.678Z,16.52
2022-12-27T12:41:53.972Z,12.38
2022-12-27T12:44:52.509Z,7.88
2022-12-27T12:47:45.328Z,9.52
2022-12-27T12:50:27.531Z,11.90
2022-12-27T12:53:11.133Z,5.78
2022-12-27T12:55:50.172Z,9.80
2022-12-27T12:58:38.852Z,7.40
2022-12-27T13:01:24.494Z,9.70
2022-12-27T13:04:05.561Z,10.80
2022-12-27T13:06:52.893Z,8.95
2022-12-27T13:09:35.055Z,13.32
2022-12-27T13:12:10.561Z,14.05
2022-12-27T13:15:00.086Z,18.02
2022-12-27T13:17:39.154Z,25.50
2022-12-27T13:20:27.268Z,17.50
2022-12-27T13:23:07.661Z,14.70
2022-12-27T13:25:45.765Z,13.60
2022-12-27T13:28:29.918Z,15.95
2022-12-27T13:31:07.470Z,14.07
2022-12-27T13:33:47.177Z,15.00
2022-12-27T13:36:25.532Z,7.93
2022-12-27T13:39:27.015Z,13.88
2022-12-27T13:42:23.440Z,14.10
2022-12-27T13:45:04.839Z,10.07
2022-12-27T13:47:59.492Z,14.45
2022-12-27T13:50:55.574Z,164.57
2022-12-27T13:53:41.061Z,166.57
2022-12-27T13:56:51.925Z,89.68
2022-12-27T13:59:32.129Z,37.08
2022-12-27T14:02:23.686Z,37.50
2022-12-27T14:05:17.215Z,11.90
2022-12-27T14:07:57.367Z,14.02
2022-12-27T14:10:36.369Z,12.65
2022-12-27T14:13:08.069Z,44.95
2022-12-27T14:15:59.972Z,9.27
2022-12-27T14:18:43.367Z,16.13
2022-12-27T14:21:29.653Z,13.73
2022-12-27T14:24:13.230Z,10.32
2022-12-27T14:27:30.597Z,20.63
2022-12-27T14:30:21.088Z,12.82
2022-12-27T14:33:23.661Z,18.10
2022-12-27T14:36:16.913Z,7.65
2022-12-27T14:39:22.151Z,9.30
2022-12-27T14:42:27.978Z,14.23
2022-12-27T14:45:36.580Z,9.25
2022-12-27T14:48:28.717Z,11.65
2022-12-27T14:52:00.092Z,9.45
2022-12-27T14:54:56.643Z,10.95
2022-12-27T14:57:35.570Z,5.82
2022-12-27T15:00:14.132Z,6.50
2022-12-27T15:03:13.483Z,6.30
2022-12-27T15:05:56.757Z,5.57
2022-12-27T15:08:44.004Z,9.88
2022-12-27T15:11:52.009Z,8.00
2022-12-27T15:14:54.073Z,12.40
2022-12-27T15:17:34.810Z,6.40
2022-12-27T15:20:26.418Z,7.32
2022-12-27T15:23:08.134Z,6.18
2022-12-27T15:25:52.141Z,6.88
2022-12-27T15:28:27.236Z,11.73
2022-12-27T15:31:04.036Z,6.07
2022-12-27T15:33:39.791Z,6.70
2022-12-27T15:36:14.574Z,10.95
2022-12-27T15:38:52.993Z,3.65
2022-12-27T15:41:55.415Z,4.18
2022-12-27T15:44:47.472Z,8.57
2022-12-27T15:47:46.703Z,16.73
2022-12-27T15:50:34.725Z,7.35
2022-12-27T15:53:19.268Z,9.55
2022-12-27T15:56:12.073Z,6.72
2022-12-27T15:58:42.124Z,6.15
2022-12-27T16:01:29.582Z,7.82
2022-12-27T16:03:59.697Z,9.63
2022-12-27T16:06:51.316Z,4.95
2022-12-27T16:09:35.622Z,7.65
2022-12-27T16:12:09.468Z,6.63
2022-12-27T16:14:41.045Z,6.28
2022-12-27T16:17:32.067Z,18.30
2022-12-27T16:20:13.315Z,14.00
2022-12-27T16:22:44.693Z,4.20
2022-12-27T16:25:31.265Z,7.60
2022-12-27T16:28:04.018Z,5.60
2022-12-27T16:30:39.967Z,2.78
2022-12-27T16:33:21.587Z,5.97
2022-12-27T16:36:04.805Z,3.70
2022-12-27T16:38:35.654Z,6.20
2022-12-27T16:41:15.271Z,7.25
2022-12-27T16:44:07.029Z,4.70
2022-12-27T16:47:03.478Z,5.03
2022-12-27T16:49:57.165Z,4.22
2022-12-27T16:52:58.504Z,4.55
2022-12-27T16:56:07.879Z,9.18
2022-12-27T16:58:37.451Z,6.18
2022-12-27T17:01:07.063Z,6.07
2022-12-27T17:03:48.174Z,5.45
2022-12-27T17:06:53.279Z,2.75
2022-12-27T17:09:44.727Z,18.08
2022-12-27T17:12:27.641Z,64.75
2022-12-27T17:15:03.842Z,38.30
2022-12-27T17:17:32.726Z,57.20
2022-12-27T17:20:06.139Z,41.35
2022-12-27T17:22:35.899Z,213.07
2022-12-27T17:25:05.192Z,276.48
2022-12-27T17:27:53.771Z,14.65
2022-12-27T17:30:23.433Z,8.85
2022-12-27T17:33:11.115Z,13.52
2022-12-27T17:35:52.979Z,72.65
2022-12-27T17:38:32.351Z,13.07
2022-12-27T17:41:15.491Z,13.55
2022-12-27T17:44:15.406Z,2.83
2022-12-27T17:46:55.855Z,12.15
2022-12-27T17:49:28.082Z,6.43
2022-12-27T17:52:15.576Z,8.05
2022-12-27T17:55:00.876Z,2.00
2022-12-27T17:58:00.455Z,4.72
2022-12-27T18:00:31.320Z,4.18
2022-12-27T18:03:01.451Z,3.75
2022-12-27T18:05:31.990Z,2.60
2022-12-27T18:08:04.332Z,3.38
2022-12-27T18:10:34.437Z,4.70
2022-12-27T18:13:05.762Z,5.85
2022-12-27T18:15:36.759Z,3.45
2022-12-27T18:18:07.148Z,3.60
2022-12-27T18:20:38.335Z,3.72
2022-12-27T18:23:16.652Z,4.97
2022-12-27T18:25:53.108Z,2.58
2022-12-27T18:28:28.700Z,3.13
2022-12-27T18:31:04.294Z,6.43
2022-12-27T18:33:35.486Z,3.80
2022-12-27T18:36:06.335Z,3.78
2022-12-27T18:38:39.582Z,3.58
2022-12-27T18:41:11.137Z,2.20
2022-12-27T18:43:44.641Z,2.50
2022-12-27T18:46:16.359Z,6.00
2022-12-27T18:48:44.562Z,2.30
2022-12-27T18:51:12.499Z,3.85
2022-12-27T18:53:44.005Z,6.43
2022-12-27T18:56:26.841Z,2.20
2022-12-27T18:59:05.763Z,1.85
2022-12-27T19:01:42.136Z,3.90
2022-12-27T19:04:22.418Z,2.97
2022-12-27T19:06:56.334Z,2.28
2022-12-27T19:09:29.389Z,4.68
2022-12-27T19:12:00.195Z,2.22
2022-12-27T19:14:37.459Z,4.53
2022-12-27T19:17:11.000Z,3.75
2022-12-27T19:19:39.703Z,5.22
2022-12-27T19:22:36.409Z,2.70
2022-12-27T19:25:19.601Z,1.40
2022-12-27T19:27:58.261Z,2.47
2022-12-27T19:30:34.938Z,3.00
2022-12-27T19:33:06.516Z,3.78
2022-12-27T19:35:34.659Z,2.05
2022-12-27T19:38:03.067Z,1.88
2022-12-27T19:40:32.363Z,6.47
2022-12-27T19:43:00.133Z,1.85
2022-12-27T19:45:29.969Z,2.22
2022-12-27T19:47:57.867Z,3.38
2022-12-27T19:50:25.762Z,2.70
2022-12-27T19:52:53.676Z,3.08
2022-12-27T19:55:25.621Z,3.35
2022-12-27T19:57:54.995Z,3.13
2022-12-27T20:00:24.321Z,3.15
2022-12-27T20:02:53.029Z,2.40
2022-12-27T20:06:11.812Z,2.00
2022-12-27T20:08:20.426Z,4.10
2022-12-27T20:10:48.175Z,2.15
2022-12-27T20:13:17.271Z,3.80
2022-12-27T20:15:45.296Z,3.28
2022-12-27T20:18:13.165Z,4.20
2022-12-27T20:20:41.413Z,2.55
2022-12-27T20:23:09.292Z,3.13
2022-12-27T20:25:39.253Z,2.75
2022-12-27T20:28:07.257Z,3.17
2022-12-27T20:30:38.895Z,4.85
2022-12-27T20:33:06.766Z,4.57
2022-12-27T20:35:35.169Z,2.22
2022-12-27T20:38:03.327Z,5.43
2022-12-27T20:40:31.180Z,5.25
2022-12-27T20:42:59.232Z,2.50
2022-12-27T20:45:27.080Z,2.00
2022-12-27T20:47:56.227Z,4.20
2022-12-27T20:50:25.188Z,4.93
2022-12-27T20:52:53.004Z,5.93
2022-12-27T20:55:20.797Z,2.63
2022-12-27T20:57:48.961Z,2.50
2022-12-27T21:00:17.693Z,2.05
2022-12-27T21:02:46.101Z,2.65
2022-12-27T21:05:16.387Z,2.00
2022-12-27T21:07:45.490Z,2.60
2022-12-27T21:10:13.338Z,2.05
2022-12-27T21:12:41.192Z,2.63
2022-12-27T21:15:10.891Z,1.98
2022-12-27T21:17:38.825Z,4.70
2022-12-27T21:20:10.983Z,2.47
2022-12-27T21:22:40.147Z,6.63
2022-12-27T21:25:08.476Z,2.20
2022-12-27T21:27:36.290Z,1.60
2022-12-27T21:30:04.439Z,1.63
2022-12-27T21:32:32.200Z,2.28
2022-12-27T21:35:00.095Z,6.72
2022-12-27T21:37:28.381Z,2.22
2022-12-27T21:39:57.547Z,3.28
2022-12-27T21:42:25.357Z,3.00
2022-12-27T21:44:53.144Z,2.90
2022-12-27T21:47:20.936Z,4.53
2022-12-27T21:49:48.723Z,1.98
2022-12-27T21:52:16.562Z,3.45
2022-12-27T21:54:44.265Z,5.93
2022-12-27T21:57:13.469Z,4.22
2022-12-27T21:59:41.197Z,12.57
2022-12-27T22:02:09.929Z,2.40
2022-12-27T22:04:37.813Z,3.38
2022-12-27T22:07:05.531Z,7.35
2022-12-27T22:09:33.369Z,4.55
2022-12-27T22:12:01.480Z,6.90
2022-12-27T22:14:36.588Z,2.28
2022-12-27T22:17:04.984Z,2.50
2022-12-27T22:19:32.758Z,3.33
2022-12-27T22:22:00.548Z,1.58
2022-12-27T22:24:28.401Z,2.58
2022-12-27T22:26:56.213Z,3.80
2022-12-27T22:29:24.768Z,2.17
2022-12-27T22:31:53.964Z,4.38
2022-12-27T22:34:21.773Z,3.58
2022-12-27T22:36:51.808Z,2.33
2022-12-27T22:39:19.818Z,2.20
2022-12-27T22:41:47.657Z,2.80
2022-12-27T22:44:16.314Z,2.78
2022-12-27T22:47:15.756Z,4.05
2022-12-27T22:49:33.601Z,6.72
2022-12-27T22:52:01.523Z,1.80
2022-12-27T22:55:05.402Z,2.97
2022-12-27T22:57:18.131Z,2.38
2022-12-27T22:59:46.355Z,1.83
2022-12-27T23:02:14.293Z,2.42
2022-12-27T23:04:43.559Z,2.17
2022-12-27T23:07:11.357Z,1.98
2022-12-27T23:09:43.150Z,2.70
2022-12-27T23:12:11.405Z,1.90
2022-12-27T23:14:39.457Z,3.25
2022-12-27T23:17:07.369Z,3.20
2022-12-27T23:19:35.283Z,3.22
2022-12-27T23:22:04.466Z,5.43
2022-12-27T23:24:32.285Z,4.22
2022-12-27T23:27:01.569Z,1.88
2022-12-27T23:29:32.664Z,2.30
2022-12-27T23:32:00.552Z,2.53
2022-12-27T23:34:29.282Z,5.00
2022-12-27T23:36:57.493Z,1.75
2022-12-27T23:39:26.807Z,6.18
2022-12-27T23:41:54.724Z,4.20
2022-12-27T23:44:34.016Z,1.90
2022-12-27T23:47:03.856Z,2.33
2022-12-27T23:49:31.793Z,2.85
2022-12-27T23:51:59.825Z,3.22
2022-12-27T23:54:29.003Z,2.08
2022-12-27T23:56:56.888Z,4.05
2022-12-27T23:59:24.834Z,1.90
